sensor_id;sensor_type;location;lat;lon;timestamp;temperature;humidity
39033;DHT22;24794;51.982;5.878;2024-02-23T00:00:40;5.00;99.90
39033;DHT22;24794;51.982;5.878;2024-02-23T00:01:41;5.10;99.90
39033;DHT22;24794;51.982;5.878;2024-02-23T00:02:42;5.00;99.90
39033;DHT22;24794;51.982;5.878;2024-02-23T00:03:42;5.10;99.90
39033;DHT22;24794;51.982;5.878;2024-02-23T00:04:43;5.10;99.90
39033;DHT22;24794;51.982;5.878;2024-02-23T00:05:45;5.10;99.90
39033;DHT22;24794;51.982;5.878;2024-02-23T00:06:45;5.10;99.90
39033;DHT22;24794;51.982;5.878;2024-02-23T00:07:46;5.10;99.90
39033;DHT22;24794;51.982;5.878;2024-02-23T00:08:46;5.10;99.90
39033;DHT22;24794;51.982;5.878;2024-02-23T00:09:47;5.10;99.90
39033;DHT22;24794;51.982;5.878;2024-02-23T00:10:47;5.10;99.90
39033;DHT22;24794;51.982;5.878;2024-02-23T00:11:48;5.10;99.90
39033;DHT22;24794;51.982;5.878;2024-02-23T00:12:49;5.10;99.90
39033;DHT22;24794;51.982;5.878;2024-02-23T00:13:50;5.10;99.90
39033;DHT22;24794;51.982;5.878;2024-02-23T00:14:51;5.10;99.90
39033;DHT22;24794;51.982;5.878;2024-02-23T00:15:51;5.10;99.90
39033;DHT22;24794;51.982;5.878;2024-02-23T00:16:52;5.10;99.90
39033;DHT22;24794;51.982;5.878;2024-02-23T00:17:52;5.10;99.90
39033;DHT22;24794;51.982;5.878;2024-02-23T00:18:53;5.10;99.90
39033;DHT22;24794;51.982;5.878;2024-02-23T00:19:53;5.10;99.90
39033;DHT22;24794;51.982;5.878;2024-02-23T00:20:54;5.10;99.90
39033;DHT22;24794;51.982;5.878;2024-02-23T00:21:54;5.10;99.90
39033;DHT22;24794;51.982;5.878;2024-02-23T00:22:55;5.10;99.90
39033;DHT22;24794;51.982;5.878;2024-02-23T00:23:56;5.10;99.90
39033;DHT22;24794;51.982;5.878;2024-02-23T00:24:56;5.10;99.90
39033;DHT22;24794;51.982;5.878;2024-02-23T00:25:57;5.20;99.90
39033;DHT22;24794;51.982;5.878;2024-02-23T00:26:57;5.20;99.90
39033;DHT22;24794;51.982;5.878;2024-02-23T00:27:58;5.20;99.90
39033;DHT22;24794;51.982;5.878;2024-02-23T00:28:58;5.20;99.90
39033;DHT22;24794;51.982;5.878;2024-02-23T00:29:59;5.20;99.90
39033;DHT22;24794;51.982;5.878;2024-02-23T00:31:00;5.20;99.90
39033;DHT22;24794;51.982;5.878;2024-02-23T00:32:01;5.20;99.90
39033;DHT22;24794;51.982;5.878;2024-02-23T00:33:02;5.20;99.90
39033;DHT22;24794;51.982;5.878;2024-02-23T00:34:03;5.20;99.90
39033;DHT22;24794;51.982;5.878;2024-02-23T00:35:03;5.30;99.90
39033;DHT22;24794;51.982;5.878;2024-02-23T00:36:04;5.30;99.90
39033;DHT22;24794;51.982;5.878;2024-02-23T00:37:05;5.30;99.90
39033;DHT22;24794;51.982;5.878;2024-02-23T00:38:06;5.30;99.90
39033;DHT22;24794;51.982;5.878;2024-02-23T00:39:08;5.30;99.90
39033;DHT22;24794;51.982;5.878;2024-02-23T00:40:09;5.30;99.90
39033;DHT22;24794;51.982;5.878;2024-02-23T00:41:10;5.30;99.90
39033;DHT22;24794;51.982;5.878;2024-02-23T00:42:11;5.30;99.90
39033;DHT22;24794;51.982;5.878;2024-02-23T00:43:11;5.30;99.90
39033;DHT22;24794;51.982;5.878;2024-02-23T00:44:12;5.30;99.90
39033;DHT22;24794;51.982;5.878;2024-02-23T00:45:13;5.30;99.90
39033;DHT22;24794;51.982;5.878;2024-02-23T00:46:13;5.40;99.90
39033;DHT22;24794;51.982;5.878;2024-02-23T00:47:14;5.30;99.90
39033;DHT22;24794;51.982;5.878;2024-02-23T00:48:15;5.30;99.90
39033;DHT22;24794;51.982;5.878;2024-02-23T00:49:15;5.30;99.90
39033;DHT22;24794;51.982;5.878;2024-02-23T00:50:17;5.30;99.90
39033;DHT22;24794;51.982;5.878;2024-02-23T00:51:17;5.40;99.90
39033;DHT22;24794;51.982;5.878;2024-02-23T00:52:18;5.40;99.90
39033;DHT22;24794;51.982;5.878;2024-02-23T00:53:18;5.40;99.90
39033;DHT22;24794;51.982;5.878;2024-02-23T00:54:20;5.30;99.90
39033;DHT22;24794;51.982;5.878;2024-02-23T00:55:21;5.30;99.90
39033;DHT22;24794;51.982;5.878;2024-02-23T00:56:22;5.30;99.90
39033;DHT22;24794;51.982;5.878;2024-02-23T00:57:22;5.30;99.90
39033;DHT22;24794;51.982;5.878;2024-02-23T00:58:27;5.20;99.90
39033;DHT22;24794;51.982;5.878;2024-02-23T00:59:28;5.10;99.90
39033;DHT22;24794;51.982;5.878;2024-02-23T01:00:28;5.10;99.90
39033;DHT22;24794;51.982;5.878;2024-02-23T01:01:29;5.00;99.90
39033;DHT22;24794;51.982;5.878;2024-02-23T01:02:30;5.00;99.90
39033;DHT22;24794;51.982;5.878;2024-02-23T01:03:30;5.00;99.90
39033;DHT22;24794;51.982;5.878;2024-02-23T01:04:31;5.00;99.90
39033;DHT22;24794;51.982;5.878;2024-02-23T01:05:31;5.00;99.90
39033;DHT22;24794;51.982;5.878;2024-02-23T01:06:32;4.90;99.90
39033;DHT22;24794;51.982;5.878;2024-02-23T01:07:32;4.90;99.90
39033;DHT22;24794;51.982;5.878;2024-02-23T01:08:33;4.90;99.90
39033;DHT22;24794;51.982;5.878;2024-02-23T01:09:33;4.90;99.90
39033;DHT22;24794;51.982;5.878;2024-02-23T01:10:34;5.00;99.90
39033;DHT22;24794;51.982;5.878;2024-02-23T01:11:35;5.00;99.90
39033;DHT22;24794;51.982;5.878;2024-02-23T01:12:35;5.00;99.90
39033;DHT22;24794;51.982;5.878;2024-02-23T01:13:36;5.00;99.90
39033;DHT22;24794;51.982;5.878;2024-02-23T01:14:37;5.10;99.90
39033;DHT22;24794;51.982;5.878;2024-02-23T01:15:37;5.10;99.90
39033;DHT22;24794;51.982;5.878;2024-02-23T01:16:38;5.10;99.90
39033;DHT22;24794;51.982;5.878;2024-02-23T01:17:38;5.10;99.90
39033;DHT22;24794;51.982;5.878;2024-02-23T01:18:39;5.20;99.90
39033;DHT22;24794;51.982;5.878;2024-02-23T01:19:41;5.20;99.90
39033;DHT22;24794;51.982;5.878;2024-02-23T01:20:41;5.20;99.90
39033;DHT22;24794;51.982;5.878;2024-02-23T01:21:42;5.30;99.90
39033;DHT22;24794;51.982;5.878;2024-02-23T01:22:43;5.30;99.90
39033;DHT22;24794;51.982;5.878;2024-02-23T01:23:43;5.30;99.90
39033;DHT22;24794;51.982;5.878;2024-02-23T01:24:44;5.30;99.90
39033;DHT22;24794;51.982;5.878;2024-02-23T01:25:45;5.40;99.90
39033;DHT22;24794;51.982;5.878;2024-02-23T01:26:45;5.40;99.90
39033;DHT22;24794;51.982;5.878;2024-02-23T01:27:46;5.40;99.90
39033;DHT22;24794;51.982;5.878;2024-02-23T01:28:46;5.40;99.90
39033;DHT22;24794;51.982;5.878;2024-02-23T01:29:47;5.40;99.90
39033;DHT22;24794;51.982;5.878;2024-02-23T01:30:48;5.40;99.90
39033;DHT22;24794;51.982;5.878;2024-02-23T01:31:49;5.40;99.90
39033;DHT22;24794;51.982;5.878;2024-02-23T01:32:49;5.50;99.90
39033;DHT22;24794;51.982;5.878;2024-02-23T01:33:51;5.50;99.90
39033;DHT22;24794;51.982;5.878;2024-02-23T01:34:51;5.50;99.90
39033;DHT22;24794;51.982;5.878;2024-02-23T01:35:52;5.50;99.90
39033;DHT22;24794;51.982;5.878;2024-02-23T01:36:53;5.50;99.90
39033;DHT22;24794;51.982;5.878;2024-02-23T01:37:53;5.50;99.90
39033;DHT22;24794;51.982;5.878;2024-02-23T01:38:54;5.50;99.90
39033;DHT22;24794;51.982;5.878;2024-02-23T01:39:55;5.50;99.90
39033;DHT22;24794;51.982;5.878;2024-02-23T01:40:55;5.50;99.90
39033;DHT22;24794;51.982;5.878;2024-02-23T01:41:56;5.50;99.90
39033;DHT22;24794;51.982;5.878;2024-02-23T01:43:06;5.60;99.90
39033;DHT22;24794;51.982;5.878;2024-02-23T01:44:06;5.60;99.90
39033;DHT22;24794;51.982;5.878;2024-02-23T01:45:07;5.60;99.90
39033;DHT22;24794;51.982;5.878;2024-02-23T01:46:08;5.60;99.90
39033;DHT22;24794;51.982;5.878;2024-02-23T01:47:10;5.60;99.90
39033;DHT22;24794;51.982;5.878;2024-02-23T01:48:11;5.60;99.90
39033;DHT22;24794;51.982;5.878;2024-02-23T01:49:12;5.50;99.90
39033;DHT22;24794;51.982;5.878;2024-02-23T01:50:14;5.50;99.90
39033;DHT22;24794;51.982;5.878;2024-02-23T01:51:14;5.60;99.90
39033;DHT22;24794;51.982;5.878;2024-02-23T01:52:15;5.50;99.90
39033;DHT22;24794;51.982;5.878;2024-02-23T01:53:17;5.60;99.90
39033;DHT22;24794;51.982;5.878;2024-02-23T01:54:19;5.50;99.90
39033;DHT22;24794;51.982;5.878;2024-02-23T01:55:20;5.50;99.90
39033;DHT22;24794;51.982;5.878;2024-02-23T01:56:22;5.50;99.90
39033;DHT22;24794;51.982;5.878;2024-02-23T01:57:23;5.50;99.90
39033;DHT22;24794;51.982;5.878;2024-02-23T01:58:24;5.50;99.90
39033;DHT22;24794;51.982;5.878;2024-02-23T01:59:25;5.50;99.90
39033;DHT22;24794;51.982;5.878;2024-02-23T02:00:26;5.50;99.90
39033;DHT22;24794;51.982;5.878;2024-02-23T02:01:27;5.50;99.90
39033;DHT22;24794;51.982;5.878;2024-02-23T02:02:28;5.50;99.90
39033;DHT22;24794;51.982;5.878;2024-02-23T02:03:29;5.50;99.90
39033;DHT22;24794;51.982;5.878;2024-02-23T02:04:29;5.50;99.90
39033;DHT22;24794;51.982;5.878;2024-02-23T02:05:30;5.50;99.90
39033;DHT22;24794;51.982;5.878;2024-02-23T02:06:31;5.50;99.90
39033;DHT22;24794;51.982;5.878;2024-02-23T02:07:31;5.50;99.90
39033;DHT22;24794;51.982;5.878;2024-02-23T02:08:35;5.50;99.90
39033;DHT22;24794;51.982;5.878;2024-02-23T02:09:36;5.50;99.90
39033;DHT22;24794;51.982;5.878;2024-02-23T02:10:36;5.50;99.90
39033;DHT22;24794;51.982;5.878;2024-02-23T02:11:46;5.50;99.90
39033;DHT22;24794;51.982;5.878;2024-02-23T02:12:47;5.50;99.90
39033;DHT22;24794;51.982;5.878;2024-02-23T02:13:47;5.50;99.90
39033;DHT22;24794;51.982;5.878;2024-02-23T02:14:48;5.50;99.90
39033;DHT22;24794;51.982;5.878;2024-02-23T02:15:48;5.50;99.90
39033;DHT22;24794;51.982;5.878;2024-02-23T02:16:49;5.50;99.90
39033;DHT22;24794;51.982;5.878;2024-02-23T02:17:49;5.50;99.90
39033;DHT22;24794;51.982;5.878;2024-02-23T02:18:50;5.50;99.90
39033;DHT22;24794;51.982;5.878;2024-02-23T02:19:50;5.50;99.90
39033;DHT22;24794;51.982;5.878;2024-02-23T02:20:55;5.50;99.90
39033;DHT22;24794;51.982;5.878;2024-02-23T02:21:57;5.50;99.90
39033;DHT22;24794;51.982;5.878;2024-02-23T02:22:57;5.50;99.90
39033;DHT22;24794;51.982;5.878;2024-02-23T02:23:58;5.50;99.90
39033;DHT22;24794;51.982;5.878;2024-02-23T02:24:58;5.50;99.90
39033;DHT22;24794;51.982;5.878;2024-02-23T02:25:59;5.40;99.90
39033;DHT22;24794;51.982;5.878;2024-02-23T02:26:59;5.40;99.90
39033;DHT22;24794;51.982;5.878;2024-02-23T02:28:00;5.40;99.90
39033;DHT22;24794;51.982;5.878;2024-02-23T02:29:01;5.40;99.90
39033;DHT22;24794;51.982;5.878;2024-02-23T02:30:01;5.40;99.90
39033;DHT22;24794;51.982;5.878;2024-02-23T02:31:03;5.40;99.90
39033;DHT22;24794;51.982;5.878;2024-02-23T02:32:04;5.40;99.90
39033;DHT22;24794;51.982;5.878;2024-02-23T02:33:05;5.50;99.90
39033;DHT22;24794;51.982;5.878;2024-02-23T02:34:05;5.50;99.90
39033;DHT22;24794;51.982;5.878;2024-02-23T02:35:06;5.40;99.90
39033;DHT22;24794;51.982;5.878;2024-02-23T02:36:07;5.40;99.90
39033;DHT22;24794;51.982;5.878;2024-02-23T02:37:07;5.40;99.90
39033;DHT22;24794;51.982;5.878;2024-02-23T02:38:08;5.40;99.90
39033;DHT22;24794;51.982;5.878;2024-02-23T02:39:09;5.50;99.90
39033;DHT22;24794;51.982;5.878;2024-02-23T02:40:10;5.40;99.90
39033;DHT22;24794;51.982;5.878;2024-02-23T02:41:11;5.50;99.90
39033;DHT22;24794;51.982;5.878;2024-02-23T02:42:11;5.50;99.90
39033;DHT22;24794;51.982;5.878;2024-02-23T02:43:12;5.50;99.90
39033;DHT22;24794;51.982;5.878;2024-02-23T02:44:13;5.50;99.90
39033;DHT22;24794;51.982;5.878;2024-02-23T02:45:14;5.50;99.90
39033;DHT22;24794;51.982;5.878;2024-02-23T02:46:14;5.50;99.90
39033;DHT22;24794;51.982;5.878;2024-02-23T02:47:15;5.50;99.90
39033;DHT22;24794;51.982;5.878;2024-02-23T02:48:15;5.50;99.90
39033;DHT22;24794;51.982;5.878;2024-02-23T02:49:16;5.50;99.90
39033;DHT22;24794;51.982;5.878;2024-02-23T02:50:16;5.50;99.90
39033;DHT22;24794;51.982;5.878;2024-02-23T02:51:17;5.50;99.90
39033;DHT22;24794;51.982;5.878;2024-02-23T02:52:17;5.50;99.90
39033;DHT22;24794;51.982;5.878;2024-02-23T02:53:18;5.50;99.90
39033;DHT22;24794;51.982;5.878;2024-02-23T02:54:19;5.50;99.90
39033;DHT22;24794;51.982;5.878;2024-02-23T02:55:20;5.50;99.90
39033;DHT22;24794;51.982;5.878;2024-02-23T02:56:21;5.50;99.90
39033;DHT22;24794;51.982;5.878;2024-02-23T02:57:21;5.50;99.90
39033;DHT22;24794;51.982;5.878;2024-02-23T02:58:22;5.50;99.90
39033;DHT22;24794;51.982;5.878;2024-02-23T02:59:23;5.50;99.90
39033;DHT22;24794;51.982;5.878;2024-02-23T03:00:24;5.50;99.90
39033;DHT22;24794;51.982;5.878;2024-02-23T03:01:24;5.50;99.90
39033;DHT22;24794;51.982;5.878;2024-02-23T03:02:25;5.50;99.90
39033;DHT22;24794;51.982;5.878;2024-02-23T03:03:25;5.50;99.90
39033;DHT22;24794;51.982;5.878;2024-02-23T03:04:26;5.50;99.90
39033;DHT22;24794;51.982;5.878;2024-02-23T03:05:26;5.50;99.90
39033;DHT22;24794;51.982;5.878;2024-02-23T03:06:27;5.50;99.90
39033;DHT22;24794;51.982;5.878;2024-02-23T03:07:27;5.60;99.90
39033;DHT22;24794;51.982;5.878;2024-02-23T03:08:28;5.50;99.90
39033;DHT22;24794;51.982;5.878;2024-02-23T03:09:29;5.60;99.90
39033;DHT22;24794;51.982;5.878;2024-02-23T03:10:29;5.60;99.90
39033;DHT22;24794;51.982;5.878;2024-02-23T03:11:30;5.60;99.90
39033;DHT22;24794;51.982;5.878;2024-02-23T03:12:31;5.60;99.90
39033;DHT22;24794;51.982;5.878;2024-02-23T03:13:31;5.60;99.90
39033;DHT22;24794;51.982;5.878;2024-02-23T03:14:32;5.60;99.90
39033;DHT22;24794;51.982;5.878;2024-02-23T03:15:34;5.60;99.90
39033;DHT22;24794;51.982;5.878;2024-02-23T03:16:34;5.60;99.90
39033;DHT22;24794;51.982;5.878;2024-02-23T03:17:36;5.60;99.90
39033;DHT22;24794;51.982;5.878;2024-02-23T03:18:37;5.60;99.90
39033;DHT22;24794;51.982;5.878;2024-02-23T03:19:38;5.60;99.90
39033;DHT22;24794;51.982;5.878;2024-02-23T03:20:39;5.60;99.90
39033;DHT22;24794;51.982;5.878;2024-02-23T03:21:39;5.60;99.90
39033;DHT22;24794;51.982;5.878;2024-02-23T03:22:40;5.60;99.90
39033;DHT22;24794;51.982;5.878;2024-02-23T03:23:41;5.50;99.90
39033;DHT22;24794;51.982;5.878;2024-02-23T03:24:41;5.50;99.90
39033;DHT22;24794;51.982;5.878;2024-02-23T03:25:42;5.50;99.90
39033;DHT22;24794;51.982;5.878;2024-02-23T03:26:42;5.50;99.90
39033;DHT22;24794;51.982;5.878;2024-02-23T03:27:43;5.50;99.90
39033;DHT22;24794;51.982;5.878;2024-02-23T03:28:44;5.50;99.90
39033;DHT22;24794;51.982;5.878;2024-02-23T03:29:44;5.50;99.90
39033;DHT22;24794;51.982;5.878;2024-02-23T03:30:45;5.60;99.90
39033;DHT22;24794;51.982;5.878;2024-02-23T03:31:45;5.50;99.90
39033;DHT22;24794;51.982;5.878;2024-02-23T03:32:46;5.50;99.90
39033;DHT22;24794;51.982;5.878;2024-02-23T03:33:47;5.50;99.90
39033;DHT22;24794;51.982;5.878;2024-02-23T03:34:47;5.60;99.90
39033;DHT22;24794;51.982;5.878;2024-02-23T03:35:48;5.50;99.90
39033;DHT22;24794;51.982;5.878;2024-02-23T03:36:49;5.50;99.90
39033;DHT22;24794;51.982;5.878;2024-02-23T03:37:49;5.60;99.90
39033;DHT22;24794;51.982;5.878;2024-02-23T03:38:50;5.50;99.90
39033;DHT22;24794;51.982;5.878;2024-02-23T03:39:50;5.50;99.90
39033;DHT22;24794;51.982;5.878;2024-02-23T03:40:51;5.60;99.90
39033;DHT22;24794;51.982;5.878;2024-02-23T03:41:52;5.50;99.90
39033;DHT22;24794;51.982;5.878;2024-02-23T03:42:52;5.60;99.90
39033;DHT22;24794;51.982;5.878;2024-02-23T03:43:53;5.60;99.90
39033;DHT22;24794;51.982;5.878;2024-02-23T03:44:53;5.50;99.90
39033;DHT22;24794;51.982;5.878;2024-02-23T03:45:54;5.60;99.90
39033;DHT22;24794;51.982;5.878;2024-02-23T03:46:54;5.50;99.90
39033;DHT22;24794;51.982;5.878;2024-02-23T03:47:55;5.50;99.90
39033;DHT22;24794;51.982;5.878;2024-02-23T03:48:56;5.60;99.90
39033;DHT22;24794;51.982;5.878;2024-02-23T03:49:57;5.60;99.90
39033;DHT22;24794;51.982;5.878;2024-02-23T03:50:58;5.50;99.90
39033;DHT22;24794;51.982;5.878;2024-02-23T03:51:59;5.60;99.90
39033;DHT22;24794;51.982;5.878;2024-02-23T03:52:59;5.60;99.90
39033;DHT22;24794;51.982;5.878;2024-02-23T03:54:00;5.60;99.90
39033;DHT22;24794;51.982;5.878;2024-02-23T03:55:01;5.50;99.90
39033;DHT22;24794;51.982;5.878;2024-02-23T03:56:01;5.50;99.90
39033;DHT22;24794;51.982;5.878;2024-02-23T03:57:02;5.50;99.90
39033;DHT22;24794;51.982;5.878;2024-02-23T03:58:03;5.50;99.90
39033;DHT22;24794;51.982;5.878;2024-02-23T03:59:04;5.50;99.90
39033;DHT22;24794;51.982;5.878;2024-02-23T04:00:05;5.50;99.90
39033;DHT22;24794;51.982;5.878;2024-02-23T04:01:06;5.50;99.90
39033;DHT22;24794;51.982;5.878;2024-02-23T04:02:07;5.50;99.90
39033;DHT22;24794;51.982;5.878;2024-02-23T04:03:07;5.50;99.90
39033;DHT22;24794;51.982;5.878;2024-02-23T04:04:09;5.50;99.90
39033;DHT22;24794;51.982;5.878;2024-02-23T04:05:09;5.50;99.90
39033;DHT22;24794;51.982;5.878;2024-02-23T04:06:10;5.50;99.90
39033;DHT22;24794;51.982;5.878;2024-02-23T04:07:10;5.50;99.90
39033;DHT22;24794;51.982;5.878;2024-02-23T04:08:11;5.50;99.90
39033;DHT22;24794;51.982;5.878;2024-02-23T04:09:12;5.50;99.90
39033;DHT22;24794;51.982;5.878;2024-02-23T04:10:13;5.50;99.90
39033;DHT22;24794;51.982;5.878;2024-02-23T04:11:19;5.50;99.90
39033;DHT22;24794;51.982;5.878;2024-02-23T04:12:23;5.50;99.90
39033;DHT22;24794;51.982;5.878;2024-02-23T04:13:23;5.50;99.90
39033;DHT22;24794;51.982;5.878;2024-02-23T04:14:24;5.50;99.90
39033;DHT22;24794;51.982;5.878;2024-02-23T04:15:25;5.50;99.90
39033;DHT22;24794;51.982;5.878;2024-02-23T04:16:25;5.50;99.90
39033;DHT22;24794;51.982;5.878;2024-02-23T04:17:26;5.50;99.90
39033;DHT22;24794;51.982;5.878;2024-02-23T04:18:26;5.50;99.90
39033;DHT22;24794;51.982;5.878;2024-02-23T04:19:27;5.50;99.90
39033;DHT22;24794;51.982;5.878;2024-02-23T04:20:27;5.50;99.90
39033;DHT22;24794;51.982;5.878;2024-02-23T04:21:28;5.50;99.90
39033;DHT22;24794;51.982;5.878;2024-02-23T04:22:29;5.50;99.90
39033;DHT22;24794;51.982;5.878;2024-02-23T04:23:29;5.50;99.90
39033;DHT22;24794;51.982;5.878;2024-02-23T04:24:30;5.50;99.90
39033;DHT22;24794;51.982;5.878;2024-02-23T04:25:31;5.50;99.90
39033;DHT22;24794;51.982;5.878;2024-02-23T04:26:31;5.50;99.90
39033;DHT22;24794;51.982;5.878;2024-02-23T04:27:32;5.50;99.90
39033;DHT22;24794;51.982;5.878;2024-02-23T04:28:32;5.50;99.90
39033;DHT22;24794;51.982;5.878;2024-02-23T04:29:34;5.50;99.90
39033;DHT22;24794;51.982;5.878;2024-02-23T04:30:34;5.50;99.90
39033;DHT22;24794;51.982;5.878;2024-02-23T04:31:38;5.50;99.90
39033;DHT22;24794;51.982;5.878;2024-02-23T04:32:39;5.50;99.90
39033;DHT22;24794;51.982;5.878;2024-02-23T04:33:39;5.50;99.90
39033;DHT22;24794;51.982;5.878;2024-02-23T04:34:40;5.50;99.90
39033;DHT22;24794;51.982;5.878;2024-02-23T04:35:41;5.50;99.90
39033;DHT22;24794;51.982;5.878;2024-02-23T04:36:42;5.50;99.90
39033;DHT22;24794;51.982;5.878;2024-02-23T04:37:46;5.50;99.90
39033;DHT22;24794;51.982;5.878;2024-02-23T04:38:46;5.50;99.90
39033;DHT22;24794;51.982;5.878;2024-02-23T04:39:47;5.50;99.90
39033;DHT22;24794;51.982;5.878;2024-02-23T04:40:47;5.50;99.90
39033;DHT22;24794;51.982;5.878;2024-02-23T04:41:48;5.50;99.90
39033;DHT22;24794;51.982;5.878;2024-02-23T04:42:48;5.60;99.90
39033;DHT22;24794;51.982;5.878;2024-02-23T04:43:49;5.60;99.90
39033;DHT22;24794;51.982;5.878;2024-02-23T04:44:49;5.60;99.90
39033;DHT22;24794;51.982;5.878;2024-02-23T04:45:51;5.50;99.90
39033;DHT22;24794;51.982;5.878;2024-02-23T04:46:51;5.60;99.90
39033;DHT22;24794;51.982;5.878;2024-02-23T04:47:52;5.60;99.90
39033;DHT22;24794;51.982;5.878;2024-02-23T04:48:52;5.60;99.90
39033;DHT22;24794;51.982;5.878;2024-02-23T04:49:53;5.60;99.90
39033;DHT22;24794;51.982;5.878;2024-02-23T04:50:54;5.60;99.90
39033;DHT22;24794;51.982;5.878;2024-02-23T04:51:54;5.60;99.90
39033;DHT22;24794;51.982;5.878;2024-02-23T04:52:55;5.60;99.90
39033;DHT22;24794;51.982;5.878;2024-02-23T04:53:55;5.60;99.90
39033;DHT22;24794;51.982;5.878;2024-02-23T04:54:56;5.60;99.90
39033;DHT22;24794;51.982;5.878;2024-02-23T04:55:56;5.60;99.90
39033;DHT22;24794;51.982;5.878;2024-02-23T04:56:57;5.60;99.90
39033;DHT22;24794;51.982;5.878;2024-02-23T04:57:57;5.60;99.90
39033;DHT22;24794;51.982;5.878;2024-02-23T04:58:58;5.60;99.90
39033;DHT22;24794;51.982;5.878;2024-02-23T04:59:59;5.60;99.90
39033;DHT22;24794;51.982;5.878;2024-02-23T05:01:00;5.60;99.90
39033;DHT22;24794;51.982;5.878;2024-02-23T05:02:00;5.60;99.90
39033;DHT22;24794;51.982;5.878;2024-02-23T05:03:01;5.60;99.90
39033;DHT22;24794;51.982;5.878;2024-02-23T05:04:03;5.60;99.90
39033;DHT22;24794;51.982;5.878;2024-02-23T05:05:04;5.60;99.90
39033;DHT22;24794;51.982;5.878;2024-02-23T05:06:05;5.60;99.90
39033;DHT22;24794;51.982;5.878;2024-02-23T05:07:06;5.60;99.90
39033;DHT22;24794;51.982;5.878;2024-02-23T05:08:06;5.60;99.90
39033;DHT22;24794;51.982;5.878;2024-02-23T05:09:07;5.60;99.90
39033;DHT22;24794;51.982;5.878;2024-02-23T05:10:09;5.60;99.90
39033;DHT22;24794;51.982;5.878;2024-02-23T05:11:10;5.60;99.90
39033;DHT22;24794;51.982;5.878;2024-02-23T05:12:10;5.70;99.90
39033;DHT22;24794;51.982;5.878;2024-02-23T05:13:11;5.70;99.90
39033;DHT22;24794;51.982;5.878;2024-02-23T05:14:11;5.70;99.90
39033;DHT22;24794;51.982;5.878;2024-02-23T05:15:12;5.70;99.90
39033;DHT22;24794;51.982;5.878;2024-02-23T05:16:14;5.70;99.90
39033;DHT22;24794;51.982;5.878;2024-02-23T05:17:15;5.70;99.90
39033;DHT22;24794;51.982;5.878;2024-02-23T05:18:15;5.70;99.90
39033;DHT22;24794;51.982;5.878;2024-02-23T05:19:16;5.70;99.90
39033;DHT22;24794;51.982;5.878;2024-02-23T05:20:17;5.80;99.90
39033;DHT22;24794;51.982;5.878;2024-02-23T05:21:17;5.80;99.90
39033;DHT22;24794;51.982;5.878;2024-02-23T05:22:18;5.80;99.90
39033;DHT22;24794;51.982;5.878;2024-02-23T05:23:19;5.80;99.90
39033;DHT22;24794;51.982;5.878;2024-02-23T05:24:20;5.80;99.90
39033;DHT22;24794;51.982;5.878;2024-02-23T05:25:20;5.80;99.90
39033;DHT22;24794;51.982;5.878;2024-02-23T05:26:21;5.80;99.90
39033;DHT22;24794;51.982;5.878;2024-02-23T05:27:21;5.80;99.90
39033;DHT22;24794;51.982;5.878;2024-02-23T05:28:22;5.80;99.90
39033;DHT22;24794;51.982;5.878;2024-02-23T05:29:23;5.80;99.90
39033;DHT22;24794;51.982;5.878;2024-02-23T05:30:23;5.90;99.90
39033;DHT22;24794;51.982;5.878;2024-02-23T05:31:44;5.80;99.90
39033;DHT22;24794;51.982;5.878;2024-02-23T05:32:45;5.90;99.90
39033;DHT22;24794;51.982;5.878;2024-02-23T05:33:47;5.90;99.90
39033;DHT22;24794;51.982;5.878;2024-02-23T05:34:47;5.90;99.90
39033;DHT22;24794;51.982;5.878;2024-02-23T05:35:51;5.90;99.90
39033;DHT22;24794;51.982;5.878;2024-02-23T05:36:52;5.90;99.90
39033;DHT22;24794;51.982;5.878;2024-02-23T05:37:53;5.90;99.90
39033;DHT22;24794;51.982;5.878;2024-02-23T05:38:53;5.90;99.90
39033;DHT22;24794;51.982;5.878;2024-02-23T05:39:54;5.90;99.90
39033;DHT22;24794;51.982;5.878;2024-02-23T05:40:54;6.00;99.90
39033;DHT22;24794;51.982;5.878;2024-02-23T05:41:55;6.00;99.90
39033;DHT22;24794;51.982;5.878;2024-02-23T05:42:56;6.00;99.90
39033;DHT22;24794;51.982;5.878;2024-02-23T05:43:56;6.00;99.90
39033;DHT22;24794;51.982;5.878;2024-02-23T05:44:57;6.00;99.90
39033;DHT22;24794;51.982;5.878;2024-02-23T05:45:58;6.00;99.90
39033;DHT22;24794;51.982;5.878;2024-02-23T05:46:59;6.00;99.90
39033;DHT22;24794;51.982;5.878;2024-02-23T05:47:59;6.00;99.90
39033;DHT22;24794;51.982;5.878;2024-02-23T05:49:00;6.00;99.90
39033;DHT22;24794;51.982;5.878;2024-02-23T05:50:02;6.00;99.90
39033;DHT22;24794;51.982;5.878;2024-02-23T05:51:02;6.00;99.90
39033;DHT22;24794;51.982;5.878;2024-02-23T05:52:03;6.00;99.90
39033;DHT22;24794;51.982;5.878;2024-02-23T05:53:04;6.00;99.90
39033;DHT22;24794;51.982;5.878;2024-02-23T05:54:04;6.00;99.90
39033;DHT22;24794;51.982;5.878;2024-02-23T05:55:05;6.10;99.90
39033;DHT22;24794;51.982;5.878;2024-02-23T05:56:06;6.00;99.90
39033;DHT22;24794;51.982;5.878;2024-02-23T05:57:06;6.00;99.90
39033;DHT22;24794;51.982;5.878;2024-02-23T05:58:07;6.00;99.90
39033;DHT22;24794;51.982;5.878;2024-02-23T05:59:07;6.00;99.90
39033;DHT22;24794;51.982;5.878;2024-02-23T06:00:08;6.00;99.90
39033;DHT22;24794;51.982;5.878;2024-02-23T06:01:09;6.00;99.90
39033;DHT22;24794;51.982;5.878;2024-02-23T06:02:09;6.00;99.90
39033;DHT22;24794;51.982;5.878;2024-02-23T06:03:10;6.00;99.90
39033;DHT22;24794;51.982;5.878;2024-02-23T06:04:11;6.10;99.90
39033;DHT22;24794;51.982;5.878;2024-02-23T06:05:12;6.10;99.90
39033;DHT22;24794;51.982;5.878;2024-02-23T06:06:13;6.10;99.90
39033;DHT22;24794;51.982;5.878;2024-02-23T06:07:14;6.10;99.90
39033;DHT22;24794;51.982;5.878;2024-02-23T06:08:17;6.10;99.90
39033;DHT22;24794;51.982;5.878;2024-02-23T06:09:18;6.10;99.90
39033;DHT22;24794;51.982;5.878;2024-02-23T06:10:19;6.10;99.90
39033;DHT22;24794;51.982;5.878;2024-02-23T06:11:19;6.10;99.90
39033;DHT22;24794;51.982;5.878;2024-02-23T06:12:20;6.10;99.90
39033;DHT22;24794;51.982;5.878;2024-02-23T06:13:20;6.10;99.90
39033;DHT22;24794;51.982;5.878;2024-02-23T06:14:21;6.10;99.90
39033;DHT22;24794;51.982;5.878;2024-02-23T06:15:23;6.10;99.90
39033;DHT22;24794;51.982;5.878;2024-02-23T06:16:24;6.10;99.90
39033;DHT22;24794;51.982;5.878;2024-02-23T06:17:24;6.10;99.90
39033;DHT22;24794;51.982;5.878;2024-02-23T06:18:25;6.10;99.90
39033;DHT22;24794;51.982;5.878;2024-02-23T06:19:25;6.10;99.90
39033;DHT22;24794;51.982;5.878;2024-02-23T06:20:26;6.10;99.90
39033;DHT22;24794;51.982;5.878;2024-02-23T06:21:26;6.20;99.90
39033;DHT22;24794;51.982;5.878;2024-02-23T06:22:27;6.10;99.90
39033;DHT22;24794;51.982;5.878;2024-02-23T06:23:28;6.10;99.90
39033;DHT22;24794;51.982;5.878;2024-02-23T06:24:29;6.10;99.90
39033;DHT22;24794;51.982;5.878;2024-02-23T06:25:30;6.10;99.90
39033;DHT22;24794;51.982;5.878;2024-02-23T06:26:31;6.10;99.90
39033;DHT22;24794;51.982;5.878;2024-02-23T06:27:32;6.10;99.90
39033;DHT22;24794;51.982;5.878;2024-02-23T06:28:33;6.10;99.90
39033;DHT22;24794;51.982;5.878;2024-02-23T06:29:35;6.10;99.90
39033;DHT22;24794;51.982;5.878;2024-02-23T06:30:35;6.10;99.90